Time;durP1;ratioP1;P1;durP2;ratioP2;P2;SDS_P1;SDS_P2;PMS_P1;PMS_P2;Temp;Humidity;BMP_temperature;BMP_pressure;BME280_temperature;BME280_humidity;BME280_pressure;Samples;Min_cycle;Max_cycle;Signal;HPM_P1;HPM_P2
2022/06/09 00:01:35;;;;;;;68.33;64.83;;;;;;;15.05;100.00;96165.22;5074129;28;20274;-68
2022/06/09 00:04:19;;;;;;;52.67;49.93;;;;;;;15.11;100.00;96175.47;5073668;28;20177;-68
2022/06/09 00:06:51;;;;;;;51.77;49.07;;;;;;;15.10;100.00;96179.19;5073060;28;20568;-68
2022/06/09 00:09:20;;;;;;;46.70;44.30;;;;;;;15.20;99.29;96187.09;5056154;28;20194;-68
2022/06/09 00:11:48;;;;;;;59.67;56.60;;;;;;;15.16;99.23;96188.66;5073786;28;20182;-68
2022/06/09 00:14:15;;;;;;;74.50;70.67;;;;;;;15.06;100.00;96193.19;5073538;28;20189;-68
2022/06/09 00:16:41;;;;;;;92.93;88.13;;;;;;;15.15;99.64;96181.81;5073453;28;20216;-69
2022/06/09 00:19:07;;;;;;;123.87;117.50;;;;;;;15.10;99.51;96188.97;5073357;28;20243;-69
2022/06/09 00:21:35;;;;;;;105.63;100.17;;;;;;;15.18;99.07;96191.84;5055382;28;20633;-68
2022/06/09 00:24:01;;;;;;;90.77;86.07;;;;;;;15.31;97.94;96193.91;5073095;28;20545;-69
2022/06/09 00:26:27;;;;;;;86.37;81.87;;;;;;;15.42;97.53;96191.22;5072492;28;20224;-69
2022/06/09 00:28:53;;;;;;;83.27;78.97;;;;;;;15.38;97.92;96193.59;5073395;28;20182;-69
2022/06/09 00:31:18;;;;;;;79.93;75.73;;;;;;;15.26;97.76;96198.41;5073354;28;20178;-69
2022/06/09 00:33:44;;;;;;;73.47;69.63;;;;;;;15.25;97.54;96194.97;5073127;28;20649;-69
2022/06/09 00:36:09;;;;;;;58.00;55.00;;;;;;;15.52;95.68;96201.75;5073103;28;20193;-68
2022/06/09 00:38:35;;;;;;;46.77;44.37;;;;;;;15.30;95.52;96197.59;5035759;28;1075265;-69
2022/06/09 00:41:02;;;;;;;50.03;47.37;;;;;;;15.50;94.74;96204.63;5073407;28;20235;-69
2022/06/09 00:43:27;;;;;;;48.47;46.03;;;;;;;15.52;94.33;96209.69;5071980;28;20314;-69
2022/06/09 00:46:11;;;;;;;48.63;46.13;;;;;;;15.34;95.63;96203.91;5073907;28;20189;-69
2022/06/09 00:48:43;;;;;;;52.40;49.70;;;;;;;15.33;95.35;96204.16;5074099;28;20181;-68
2022/06/09 00:51:25;;;;;;;52.20;49.30;;;;;;;15.12;96.85;96198.19;5074005;28;20209;-68
2022/06/09 00:53:56;;;;;;;82.67;78.37;;;;;;;15.25;96.99;96196.81;5073832;28;20162;-69
2022/06/09 00:56:21;;;;;;;93.30;88.50;;;;;;;15.39;97.00;96201.25;5074080;28;20205;-69
2022/06/09 00:58:51;;;;;;;111.40;105.60;;;;;;;15.38;99.01;96198.88;5074212;28;20674;-69
2022/06/09 01:01:18;;;;;;;126.30;119.70;;;;;;;15.22;100.00;96200.78;5073907;28;20730;-69
2022/06/09 01:03:56;;;;;;;166.53;158.00;;;;;;;15.24;100.00;96197.88;5073661;28;20173;-68
2022/06/09 01:06:27;;;;;;;132.57;125.47;;;;;;;15.11;100.00;96199.25;5073176;28;20200;-68
2022/06/09 01:09:00;;;;;;;144.13;136.67;;;;;;;15.05;100.00;96196.88;5073140;28;20165;-68
2022/06/09 01:11:25;;;;;;;162.00;153.40;;;;;;;15.02;100.00;96194.78;5073076;28;20177;-67
2022/06/09 01:13:55;;;;;;;250.73;237.50;;;;;;;14.90;100.00;96205.63;5073173;28;20256;-67
2022/06/09 01:16:39;;;;;;;268.17;254.20;;;;;;;14.81;100.00;96202.78;5073645;28;20181;-67
2022/06/09 01:19:35;;;;;;;245.10;232.63;;;;;;;14.69;100.00;96212.81;5058527;28;20173;-67
2022/06/09 01:22:19;;;;;;;235.67;223.20;;;;;;;14.46;100.00;96208.09;5072864;28;20262;-68
2022/06/09 01:25:26;;;;;;;238.53;226.13;;;;;;;14.28;100.00;96208.56;5072565;28;20606;-67
2022/06/09 01:28:07;;;;;;;188.07;178.03;;;;;;;14.11;100.00;96203.56;5069874;28;20196;-67
2022/06/09 01:30:41;;;;;;;158.83;150.73;;;;;;;14.16;100.00;96212.25;5072963;28;20657;-67
2022/06/09 01:33:42;;;;;;;101.37;96.20;;;;;;;14.22;100.00;96201.72;5072936;28;20647;-67
2022/06/09 01:36:14;;;;;;;85.23;80.83;;;;;;;14.13;100.00;96202.25;5067036;28;20189;-67
2022/06/09 01:38:50;;;;;;;103.00;97.77;;;;;;;14.16;100.00;96212.25;5072845;28;20282;-67
2022/06/09 01:41:16;;;;;;;89.83;85.17;;;;;;;14.10;100.00;96209.88;5072750;28;20197;-67
2022/06/09 01:43:43;;;;;;;72.83;68.93;;;;;;;14.13;100.00;96217.28;5063738;28;20234;-67
2022/06/09 01:46:19;;;;;;;58.40;55.40;;;;;;;14.02;100.00;96215.69;5072454;28;20978;-68
2022/06/09 01:48:47;;;;;;;52.10;49.40;;;;;;;13.97;100.00;96213.84;5072476;28;20177;-68
2022/06/09 01:51:15;;;;;;;54.13;51.17;;;;;;;13.83;100.00;96214.59;5072840;28;20188;-67
2022/06/09 01:53:51;;;;;;;68.40;64.87;;;;;;;14.01;100.00;96227.28;5072608;28;20181;-68
2022/06/09 01:56:25;;;;;;;68.17;64.67;;;;;;;13.93;100.00;96217.28;5073011;28;20637;-67
2022/06/09 01:58:58;;;;;;;55.57;52.53;;;;;;;13.87;100.00;96216.47;5072367;28;20174;-67
2022/06/09 02:01:30;;;;;;;63.77;60.47;;;;;;;13.85;100.00;96220.41;5072652;28;20204;-67
2022/06/09 02:03:59;;;;;;;88.43;83.90;;;;;;;13.80;100.00;96215.13;5072104;28;20695;-68
2022/06/09 02:06:25;;;;;;;104.77;99.37;;;;;;;13.65;100.00;96214.03;5072485;28;20207;-67
2022/06/09 02:08:52;;;;;;;83.83;79.43;;;;;;;13.66;100.00;96218.25;5072131;28;20189;-68
2022/06/09 02:11:18;;;;;;;72.23;68.53;;;;;;;13.61;100.00;96225.34;5072594;28;20184;-67
2022/06/09 02:13:49;;;;;;;71.27;67.50;;;;;;;13.69;100.00;96220.38;5054137;28;20211;-68
2022/06/09 02:16:18;;;;;;;76.80;72.70;;;;;;;13.60;100.00;96215.84;5072832;28;20256;-67
2022/06/09 02:18:47;;;;;;;145.20;137.47;;;;;;;13.58;100.00;96223.25;5071924;28;20185;-67
2022/06/09 02:21:15;;;;;;;128.67;121.87;;;;;;;13.58;100.00;96224.03;5054511;28;20181;-68
2022/06/09 02:23:41;;;;;;;141.23;133.90;;;;;;;13.54;100.00;96222.94;5072246;28;20170;-68
2022/06/09 02:26:06;;;;;;;135.17;128.13;;;;;;;13.56;100.00;96220.06;5052408;28;20648;-68
2022/06/09 02:28:32;;;;;;;125.17;118.70;;;;;;;13.59;100.00;96223.00;5069058;28;20268;-68
2022/06/09 02:30:58;;;;;;;154.57;146.67;;;;;;;13.57;100.00;96219.81;5072201;28;20615;-68
2022/06/09 02:33:24;;;;;;;199.60;189.17;;;;;;;13.58;100.00;96220.59;5072322;28;20193;-68
2022/06/09 02:35:50;;;;;;;197.40;186.97;;;;;;;13.56;100.00;96220.84;5072157;28;20181;-68
2022/06/09 02:38:17;;;;;;;180.83;171.07;;;;;;;13.55;100.00;96221.09;5072360;28;20286;-68
2022/06/09 02:40:42;;;;;;;185.90;176.27;;;;;;;13.55;100.00;96221.09;5071714;28;20185;-68
2022/06/09 02:43:08;;;;;;;191.80;181.83;;;;;;;13.39;100.00;96224.75;5070250;28;20196;-68
2022/06/09 02:45:33;;;;;;;191.13;180.77;;;;;;;13.45;100.00;96228.97;5072120;28;20264;-68
2022/06/09 02:48:00;;;;;;;150.03;141.53;;;;;;;13.27;100.00;96231.00;5072144;28;20296;-67
2022/06/09 02:50:25;;;;;;;138.60;131.27;;;;;;;13.29;100.00;96234.19;5072319;28;20193;-67
2022/06/09 02:52:51;;;;;;;162.97;154.27;;;;;;;13.27;100.00;96230.22;5071521;28;20185;-67
2022/06/09 02:55:16;;;;;;;189.93;180.00;;;;;;;13.35;100.00;96221.03;5072171;28;20189;-67
2022/06/09 02:57:41;;;;;;;189.97;179.83;;;;;;;13.37;100.00;96235.56;5071846;28;20177;-67
2022/06/09 03:00:12;;;;;;;125.63;118.73;;;;;;;13.21;100.00;96237.28;5071740;28;20625;-67
2022/06/09 03:02:38;;;;;;;147.23;139.47;;;;;;;13.30;100.00;96248.16;5071632;28;20227;-67
2022/06/09 03:05:03;;;;;;;138.43;130.93;;;;;;;13.32;100.00;96246.81;5071961;28;20554;-67
2022/06/09 03:07:29;;;;;;;144.90;137.27;;;;;;;13.39;100.00;96243.97;5072106;28;20724;-67
2022/06/09 03:09:54;;;;;;;157.73;149.20;;;;;;;13.43;100.00;96250.28;5071733;28;20243;-67
2022/06/09 03:12:20;;;;;;;153.33;145.03;;;;;;;13.38;100.00;96246.84;5071724;28;20185;-66
2022/06/09 03:14:46;;;;;;;166.73;158.10;;;;;;;13.37;100.00;96255.81;5071131;28;20185;-68
2022/06/09 03:17:11;;;;;;;171.07;161.53;;;;;;;13.24;100.00;96257.84;5053912;28;20272;-67
2022/06/09 03:19:38;;;;;;;192.47;182.30;;;;;;;13.28;100.00;96261.56;5072155;28;20221;-67
2022/06/09 03:22:03;;;;;;;197.30;187.03;;;;;;;13.38;100.00;96260.78;5071828;28;20186;-67
2022/06/09 03:24:29;;;;;;;220.80;209.37;;;;;;;13.25;100.00;96256.03;5071200;28;20188;-67
2022/06/09 03:26:55;;;;;;;187.13;177.43;;;;;;;13.28;100.00;96260.75;5070346;28;20202;-67
2022/06/09 03:29:21;;;;;;;192.57;182.90;;;;;;;13.35;100.00;96260.53;5071683;28;20182;-67
2022/06/09 03:31:47;;;;;;;213.80;202.77;;;;;;;13.41;100.00;96268.19;5074470;28;20205;-67
2022/06/09 03:34:13;;;;;;;217.17;205.77;;;;;;;13.46;100.00;96267.41;5074955;28;20761;-67
2022/06/09 03:36:38;;;;;;;251.83;238.80;;;;;;;13.28;100.00;96266.81;5074998;28;20185;-67
2022/06/09 03:39:04;;;;;;;236.90;224.47;;;;;;;13.44;100.00;96275.56;5073894;28;20721;-67
2022/06/09 03:41:29;;;;;;;252.03;238.90;;;;;;;13.41;100.00;96270.03;5074124;28;20185;-67
2022/06/09 03:43:55;;;;;;;234.53;222.17;;;;;;;13.34;100.00;96270.25;5055384;28;20669;-67
2022/06/09 03:46:20;;;;;;;202.80;192.23;;;;;;;13.36;100.00;96288.44;5075340;28;20193;-67
2022/06/09 03:48:46;;;;;;;178.60;169.50;;;;;;;13.42;100.00;96280.31;5074819;28;20540;-67
2022/06/09 03:51:12;;;;;;;199.33;189.07;;;;;;;13.53;100.00;96283.78;5075084;28;20241;-67
2022/06/09 03:53:39;;;;;;;185.87;176.23;;;;;;;13.56;100.00;96284.06;5074264;28;20185;-67
2022/06/09 03:56:16;;;;;;;160.40;152.10;;;;;;;13.45;100.00;96289.53;5074333;28;20594;-67
2022/06/09 03:58:43;;;;;;;165.67;156.60;;;;;;;13.44;100.00;96294.00;5075134;28;20196;-67
2022/06/09 04:01:13;;;;;;;104.73;98.93;;;;;;;13.41;100.00;96297.16;5074924;28;20192;-67
2022/06/09 04:03:41;;;;;;;81.43;77.00;;;;;;;13.42;100.00;96300.59;5074590;28;20261;-67
2022/06/09 04:06:12;;;;;;;86.93;82.33;;;;;;;13.36;100.00;96309.50;5074433;28;20194;-67
2022/06/09 04:08:37;;;;;;;96.93;91.83;;;;;;;13.40;100.00;96300.03;5074868;28;20181;-66
2022/06/09 04:11:03;;;;;;;106.93;101.23;;;;;;;13.24;100.00;96302.59;5074411;28;20275;-67
2022/06/09 04:13:28;;;;;;;111.67;105.67;;;;;;;13.47;100.00;96301.41;5074263;28;20610;-67
2022/06/09 04:15:54;;;;;;;110.33;104.50;;;;;;;13.42;100.00;96311.91;5074314;28;20185;-67
2022/06/09 04:18:19;;;;;;;115.53;109.50;;;;;;;13.47;100.00;96313.78;5074464;28;20541;-66
2022/06/09 04:20:44;;;;;;;133.53;126.57;;;;;;;13.49;100.00;96311.66;5074722;28;20209;-67
2022/06/09 04:23:09;;;;;;;110.70;104.60;;;;;;;13.49;100.00;96309.03;5074151;28;20189;-67
2022/06/09 04:25:35;;;;;;;110.73;104.87;;;;;;;13.52;100.00;96316.44;5054686;28;20661;-68
2022/06/09 04:28:00;;;;;;;132.13;125.13;;;;;;;13.63;100.00;96312.78;5058640;28;20209;-67
2022/06/09 04:30:26;;;;;;;132.53;125.50;;;;;;;13.57;100.00;96321.72;5056487;28;20267;-67
2022/06/09 04:32:52;;;;;;;130.83;123.60;;;;;;;13.69;100.00;96311.75;5074072;28;20292;-67
2022/06/09 04:35:17;;;;;;;109.13;103.23;;;;;;;13.73;100.00;96315.47;5073677;28;20291;-68
2022/06/09 04:38:01;;;;;;;104.30;98.90;;;;;;;13.76;100.00;96322.84;5073946;28;20677;-67
2022/06/09 04:40:34;;;;;;;106.13;100.43;;;;;;;13.80;100.00;96325.75;5055695;28;20181;-66
2022/06/09 04:42:59;;;;;;;97.93;92.60;;;;;;;13.63;100.00;96334.66;5071120;28;20185;-67
2022/06/09 04:45:25;;;;;;;79.73;75.13;;;;;;;13.70;100.00;96329.16;5073357;28;20193;-67
2022/06/09 04:47:50;;;;;;;64.13;60.60;;;;;;;13.65;100.00;96335.16;5073707;28;20201;-68
2022/06/09 04:50:16;;;;;;;64.57;60.33;;;;;;;13.74;100.00;96327.59;5074012;28;20215;-67
2022/06/09 04:52:42;;;;;;;62.40;58.93;;;;;;;13.83;100.00;96343.66;5074251;28;20182;-67
2022/06/09 04:55:08;;;;;;;194.77;184.60;;;;;;;13.71;100.00;96346.50;5074107;28;20189;-68
2022/06/09 04:57:34;;;;;;;57.57;53.97;;;;;;;13.76;100.00;96345.78;5073478;28;20192;-67
2022/06/09 05:00:00;;;;;;;55.40;52.37;;;;;;;13.73;100.00;96353.13;5073563;28;20638;-68
2022/06/09 05:02:26;;;;;;;47.50;44.77;;;;;;;13.64;100.00;96354.69;5073364;28;20181;-67
2022/06/09 05:04:51;;;;;;;61.23;57.73;;;;;;;13.75;100.00;96358.16;5073182;28;20180;-67
2022/06/09 05:07:16;;;;;;;87.47;82.60;;;;;;;13.71;100.00;96355.22;5073402;28;20212;-67
2022/06/09 05:09:42;;;;;;;68.40;64.27;;;;;;;13.60;100.00;96365.94;5073046;28;20189;-67
2022/06/09 05:12:07;;;;;;;55.70;52.27;;;;;;;13.63;100.00;96362.81;5073297;28;20181;-68
2022/06/09 05:14:33;;;;;;;69.30;65.30;;;;;;;13.62;100.00;96363.88;5072306;28;20589;-67
2022/06/09 05:16:58;;;;;;;51.13;48.23;;;;;;;13.71;100.00;96372.84;5073202;28;20552;-68
2022/06/09 05:19:24;;;;;;;51.47;48.57;;;;;;;13.82;100.00;96371.09;5072997;28;20187;-69
2022/06/09 05:21:49;;;;;;;46.50;44.03;;;;;;;13.94;100.00;96379.53;5072885;28;20181;-68
2022/06/09 05:24:15;;;;;;;41.93;39.70;;;;;;;13.82;100.00;96379.75;5072899;28;20224;-68
2022/06/09 05:26:41;;;;;;;66.13;62.57;;;;;;;13.90;100.00;96378.47;5062363;28;20209;-68
2022/06/09 05:29:07;;;;;;;52.77;49.67;;;;;;;14.13;99.20;96376.22;5073105;28;20186;-67
2022/06/09 05:31:32;;;;;;;70.17;66.30;;;;;;;14.02;98.71;96390.41;5073200;28;20533;-68
2022/06/09 05:33:57;;;;;;;63.63;59.97;;;;;;;14.13;98.29;96380.69;5072802;28;20188;-68
2022/06/09 05:36:23;;;;;;;61.43;58.17;;;;;;;14.01;98.53;96380.91;5073111;28;20185;-68
2022/06/09 05:47:00;;;;;;;132.07;125.13;;;;;;;15.14;92.48;96388.00;5072781;28;20284;-68
2022/06/09 05:49:26;;;;;;;110.23;104.23;;;;;;;15.45;90.72;96394.03;5072516;28;20264;-68
2022/06/09 05:51:52;;;;;;;207.73;196.23;;;;;;;15.77;87.94;96397.94;5072207;28;20184;-68
2022/06/09 05:54:21;;;;;;;115.40;109.20;;;;;;;16.03;86.80;96398.69;5072227;28;20723;-68
2022/06/09 05:56:46;;;;;;;270.40;254.63;;;;;;;16.38;84.88;96399.59;5072535;28;20181;-68
2022/06/09 05:59:12;;;;;;;180.53;170.53;;;;;;;16.39;81.84;96401.94;5072620;28;20192;-68
2022/06/09 06:01:37;;;;;;;276.33;260.73;;;;;;;16.67;81.58;96407.63;5072633;28;20276;-68
2022/06/09 06:04:05;;;;;;;298.33;282.03;;;;;;;16.75;79.51;96405.22;5071986;28;20274;-68
2022/06/09 06:06:33;;;;;;;284.23;269.00;;;;;;;16.91;80.19;96405.91;5072458;28;20213;-67
2022/06/09 06:09:00;;;;;;;276.27;261.40;;;;;;;17.20;79.11;96414.69;5071970;28;20362;-67
2022/06/09 06:11:26;;;;;;;269.27;254.57;;;;;;;17.23;75.64;96416.75;5072138;28;20177;-67
2022/06/09 06:13:54;;;;;;;366.63;346.02;;;;;;;17.53;76.73;96417.56;5071026;28;20650;-69
2022/06/09 06:16:20;;;;;;;236.13;223.13;;;;;;;17.59;74.00;96424.41;5071475;28;20273;-68
2022/06/09 06:18:45;;;;;;;199.98;188.73;;;;;;;17.83;74.10;96423.38;5071159;28;20275;-68
2022/06/09 06:21:11;;;;;;;176.68;166.82;;;;;;;18.02;72.48;96422.66;5070925;28;20192;-67
2022/06/09 06:23:37;;;;;;;194.73;184.05;;;;;;;18.17;71.58;96423.28;5071955;28;20196;-68
2022/06/09 06:26:02;;;;;;;232.45;219.77;;;;;;;18.38;70.96;96423.03;5070777;28;20342;-68
2022/06/09 06:28:28;;;;;;;271.67;256.65;;;;;;;18.31;70.39;96427.91;5071885;28;20200;-68
2022/06/09 06:30:54;;;;;;;363.48;343.00;;;;;;;18.38;70.49;96431.00;5071640;28;20178;-69
2022/06/09 06:33:19;;;;;;;450.27;423.70;;;;;;;18.68;69.98;96427.97;5070783;28;20185;-68
2022/06/09 06:35:45;;;;;;;352.52;332.20;;;;;;;18.85;69.01;96428.25;5071537;28;20190;-69
2022/06/09 06:38:11;;;;;;;392.23;369.77;;;;;;;19.08;68.20;96434.56;5052871;28;20224;-69
2022/06/09 06:40:36;;;;;;;346.25;326.30;;;;;;;19.26;67.66;96433.75;5069381;28;20493;-69
2022/06/09 06:43:02;;;;;;;194.55;183.95;;;;;;;19.05;66.08;96451.09;5072333;28;20203;-69
2022/06/09 06:45:28;;;;;;;162.18;153.35;;;;;;;18.73;67.31;96458.97;5072320;28;20196;-69
2022/06/09 06:47:54;;;;;;;166.27;156.32;;;;;;;18.93;67.71;96456.84;5072169;28;20197;-69
2022/06/09 06:50:20;;;;;;;152.00;143.77;;;;;;;19.01;65.95;96452.72;5072113;28;20631;-68
2022/06/09 06:52:45;;;;;;;156.35;147.60;;;;;;;18.93;66.14;96456.84;5072119;28;20196;-69
2022/06/09 06:55:14;;;;;;;185.00;174.55;;;;;;;19.47;65.03;96466.16;5071863;28;20200;-68
2022/06/09 06:57:40;;;;;;;144.82;136.50;;;;;;;19.21;65.60;96470.25;5072031;28;20181;-68
2022/06/09 07:00:07;;;;;;;168.73;159.13;;;;;;;19.25;65.18;96461.41;5070825;28;20242;-68
2022/06/09 07:02:32;;;;;;;141.57;134.02;;;;;;;18.87;65.13;96479.25;5069944;28;20288;-68
2022/06/09 07:04:58;;;;;;;133.13;125.85;;;;;;;18.76;66.91;96477.78;5069957;28;20185;-67
2022/06/09 07:07:24;;;;;;;143.63;136.00;;;;;;;18.36;66.75;96478.25;5075241;28;20201;-68
2022/06/09 07:09:50;;;;;;;139.55;131.95;;;;;;;18.46;67.82;96486.09;5075079;28;20185;-68
2022/06/09 07:12:16;;;;;;;117.85;111.25;;;;;;;18.72;66.85;96483.97;5074452;28;20226;-69
2022/06/09 07:14:41;;;;;;;218.23;205.32;;;;;;;18.63;66.24;96492.56;5074160;28;20207;-68
2022/06/09 07:17:06;;;;;;;162.52;153.73;;;;;;;19.27;64.06;96482.38;5074976;28;20177;-68
2022/06/09 07:19:32;;;;;;;156.88;148.27;;;;;;;19.60;62.79;96493.88;5075197;28;20507;-69
2022/06/09 07:21:58;;;;;;;147.90;139.68;;;;;;;19.40;62.30;96492.28;5075101;28;20280;-69
2022/06/09 07:24:24;;;;;;;96.93;91.65;;;;;;;18.47;63.43;96488.47;5075063;28;20184;-68
2022/06/09 07:26:50;;;;;;;115.40;109.22;;;;;;;18.64;63.16;96499.44;5060438;28;20568;-68
2022/06/09 07:29:16;;;;;;;126.68;119.43;;;;;;;19.35;61.91;96493.13;5073846;28;20237;-69
2022/06/09 07:31:42;;;;;;;184.25;174.18;;;;;;;19.60;60.15;96501.84;5056015;28;20180;-69
2022/06/09 07:34:07;;;;;;;194.13;183.60;;;;;;;19.66;59.91;96506.00;5073526;28;20193;-69
2022/06/09 07:36:33;;;;;;;171.00;161.50;;;;;;;19.72;58.99;96507.50;5073283;28;20563;-69
2022/06/09 07:38:58;;;;;;;123.43;117.00;;;;;;;19.40;58.45;96500.25;5073837;28;20247;-69
2022/06/09 07:41:24;;;;;;;158.55;150.02;;;;;;;19.35;59.60;96503.78;5072053;28;20217;-68
2022/06/09 07:43:50;;;;;;;116.28;110.03;;;;;;;19.49;58.69;96509.19;5056485;28;20177;-69
2022/06/09 07:46:16;;;;;;;79.70;75.35;;;;;;;19.62;58.18;96508.44;5072598;28;20268;-69
2022/06/09 07:48:42;;;;;;;95.07;89.95;;;;;;;19.38;56.96;96510.41;5075136;28;20190;-69
2022/06/09 07:51:08;;;;;;;114.07;108.10;;;;;;;19.46;56.29;96507.88;5074695;28;20543;-69
2022/06/09 07:53:34;;;;;;;107.68;101.90;;;;;;;19.73;56.24;96509.84;5074659;28;20182;-69
2022/06/09 07:56:00;;;;;;;113.97;107.95;;;;;;;20.12;56.26;96503.31;5074515;28;20196;-69
2022/06/09 07:58:26;;;;;;;198.07;188.07;;;;;;;19.72;55.42;96510.94;5075030;28;20197;-68
2022/06/09 08:00:52;;;;;;;268.65;254.63;;;;;;;18.97;57.65;96515.50;5073534;28;20653;-69
2022/06/09 08:03:20;;;;;;;153.15;145.15;;;;;;;19.56;56.24;96522.13;5073979;28;20314;-68
2022/06/09 08:05:46;;;;;;;209.65;198.40;;;;;;;19.57;55.90;96518.34;5073547;28;20525;-69
2022/06/09 08:08:11;;;;;;;208.05;197.15;;;;;;;19.31;55.86;96516.06;5073627;28;20311;-67
2022/06/09 08:10:37;;;;;;;158.02;149.70;;;;;;;19.31;56.09;96521.38;5055024;28;20212;-68
2022/06/09 08:13:03;;;;;;;121.97;115.25;;;;;;;19.21;57.21;96520.75;5055588;28;20226;-69
2022/06/09 08:15:30;;;;;;;124.18;117.30;;;;;;;19.96;55.98;96518.78;5055085;28;20599;-68
2022/06/09 08:17:57;;;;;;;209.35;198.30;;;;;;;20.07;55.32;96525.50;5073720;28;20193;-68
2022/06/09 08:20:25;;;;;;;249.73;236.65;;;;;;;20.02;55.16;96524.78;5073467;28;20177;-68
2022/06/09 08:22:52;;;;;;;190.50;180.48;;;;;;;20.06;54.01;96523.91;5074183;28;20213;-67
2022/06/09 08:25:19;;;;;;;263.25;249.20;;;;;;;19.51;56.50;96523.75;5072575;28;20638;-68
2022/06/09 08:27:47;;;;;;;298.83;283.17;;;;;;;19.88;55.98;96527.44;5073933;28;21018;-68
2022/06/09 08:30:14;;;;;;;286.52;270.55;;;;;;;20.72;54.16;96534.16;5073502;28;20611;-68
2022/06/09 08:32:40;;;;;;;108.72;102.72;;;;;;;19.87;54.22;96531.97;5073563;28;20539;-68
2022/06/09 08:35:09;;;;;;;115.72;109.43;;;;;;;19.67;53.73;96526.19;5073335;28;20193;-68
2022/06/09 08:37:35;;;;;;;99.35;93.75;;;;;;;20.02;52.96;96530.13;5072980;28;20225;-67
2022/06/09 08:40:01;;;;;;;141.23;133.88;;;;;;;19.40;53.91;96529.47;5053007;28;20193;-68
2022/06/09 08:42:32;;;;;;;104.95;99.32;;;;;;;20.41;52.86;96537.69;5073417;28;20199;-68
2022/06/09 08:45:09;;;;;;;334.60;317.05;;;;;;;20.12;51.45;96532.59;5073278;28;20185;-68
2022/06/09 08:47:46;;;;;;;311.20;294.80;;;;;;;20.24;53.42;96536.38;5073053;28;20221;-69
2022/06/09 08:50:20;;;;;;;204.63;193.88;;;;;;;20.14;53.20;96546.41;5073640;28;20172;-68
2022/06/09 08:53:00;;;;;;;124.13;116.90;;;;;;;19.19;55.75;96538.84;5055766;28;20644;-68
2022/06/09 08:55:37;;;;;;;217.35;205.95;;;;;;;19.13;56.69;96548.75;5073194;28;20638;-69
2022/06/09 08:58:15;;;;;;;355.10;335.38;;;;;;;18.61;58.37;96555.75;5073602;28;20176;-69
2022/06/09 09:00:49;;;;;;;505.10;474.27;;;;;;;17.97;57.46;96561.44;5063590;28;20219;-68
2022/06/09 09:03:27;;;;;;;230.27;217.95;;;;;;;18.17;57.72;96563.88;5073143;28;20278;-69
2022/06/09 09:06:04;;;;;;;126.03;119.28;;;;;;;17.77;58.83;96567.69;5073359;28;20181;-67
2022/06/09 09:08:29;;;;;;;117.93;111.78;;;;;;;18.38;58.31;96567.16;5072651;28;20205;-69
2022/06/09 09:11:22;;;;;;;121.95;115.40;;;;;;;18.21;59.25;96569.44;5072481;28;20238;-69
2022/06/09 09:13:59;;;;;;;108.60;102.78;;;;;;;18.33;58.97;96566.41;5065971;28;20169;-69
2022/06/09 09:16:45;;;;;;;127.57;120.97;;;;;;;18.52;58.60;96573.34;5073188;28;20626;-69
2022/06/09 09:19:41;;;;;;;232.32;219.80;;;;;;;19.29;56.96;96567.91;5073204;28;20173;-69
2022/06/09 09:22:24;;;;;;;154.52;145.85;;;;;;;19.32;55.64;96562.84;5061842;28;20264;-68
2022/06/09 09:25:15;;;;;;;177.98;168.57;;;;;;;18.69;57.09;96575.59;5068696;28;20188;-69
2022/06/09 09:28:02;;;;;;;108.20;102.35;;;;;;;18.71;57.43;96568.13;5033266;28;20232;-69
2022/06/09 09:30:34;;;;;;;444.52;417.83;;;;;;;19.14;56.84;96568.94;5071786;28;20174;-69
2022/06/09 09:33:00;;;;;;;344.27;324.80;;;;;;;18.97;54.55;96582.69;5059894;28;20581;-68
2022/06/09 09:35:40;;;;;;;400.10;375.35;;;;;;;18.87;55.68;96571.41;5072382;28;20189;-68
2022/06/09 09:38:07;;;;;;;224.98;212.77;;;;;;;19.08;55.14;96575.38;5072240;28;20721;-69
2022/06/09 09:40:35;;;;;;;266.23;251.30;;;;;;;19.32;54.77;96575.34;5069681;28;20216;-69
2022/06/09 09:43:07;;;;;;;380.60;358.88;;;;;;;20.01;53.26;96577.22;5072552;28;20185;-69
2022/06/09 09:45:37;;;;;;;288.27;272.25;;;;;;;20.43;52.80;96578.94;5071855;28;20239;-69
2022/06/09 09:48:40;;;;;;;540.08;506.33;;;;;;;20.19;53.21;96576.38;5054491;28;20250;-69
2022/06/09 09:51:13;;;;;;;185.35;175.55;;;;;;;19.95;53.56;96582.94;5051158;28;20220;-69
2022/06/09 09:53:44;;;;;;;277.95;261.83;;;;;;;19.50;54.58;96585.22;5072101;28;20264;-69
2022/06/09 09:56:15;;;;;;;470.00;425.73;;;;;;;18.88;56.82;96579.09;5061548;28;20192;-68
2022/06/09 09:58:46;;;;;;;292.38;276.65;;;;;;;19.19;57.16;96578.69;5072674;28;20183;-69
2022/06/09 10:01:18;;;;;;;270.60;256.15;;;;;;;18.64;58.62;96589.72;5072194;28;20184;-68
2022/06/09 10:09:39;;;;;;;163.38;154.40;;;;;;;19.05;55.87;96592.69;5072392;28;20185;-69
2022/06/09 10:12:17;;;;;;;136.50;129.07;;;;;;;18.70;55.41;96595.75;5072406;28;20280;-68
2022/06/09 10:14:47;;;;;;;165.05;156.13;;;;;;;18.99;54.02;96598.34;5072390;28;20192;-69
2022/06/09 10:17:27;;;;;;;188.05;178.00;;;;;;;19.54;54.33;96594.19;5072524;28;20184;-69
2022/06/09 10:20:05;;;;;;;160.90;152.10;;;;;;;19.93;53.26;96596.53;5072377;28;20161;-70
2022/06/09 10:22:34;;;;;;;115.70;109.47;;;;;;;19.85;52.59;96591.84;5072298;28;20157;-69
2022/06/09 10:25:17;;;;;;;131.90;124.72;;;;;;;19.69;53.62;96598.47;5070292;28;20553;-70
2022/06/09 10:27:45;;;;;;;98.22;93.03;;;;;;;19.95;52.26;96591.69;5072018;28;20208;-70
2022/06/09 10:30:14;;;;;;;182.00;172.75;;;;;;;19.54;51.89;96604.81;5071895;28;20266;-70
2022/06/09 10:32:49;;;;;;;82.05;77.35;;;;;;;19.33;54.08;96593.66;5071699;28;20660;-69
2022/06/09 10:35:57;;;;;;;121.05;114.45;;;;;;;19.46;54.10;96595.63;5071771;28;20169;-69
2022/06/09 10:38:34;;;;;;;227.82;214.82;;;;;;;19.00;54.82;96595.38;5068469;28;20581;-69
2022/06/09 10:41:03;;;;;;;302.65;285.20;;;;;;;19.25;54.76;96593.50;5075232;28;20181;-69
2022/06/09 10:43:56;;;;;;;105.15;99.45;;;;;;;19.04;54.04;96590.31;5075628;28;20330;-69
2022/06/09 10:46:29;;;;;;;115.90;109.07;;;;;;;19.20;54.03;96593.56;5075744;28;20177;-69
2022/06/09 10:55:39;;;;;;;141.25;133.50;;;;;;;18.44;55.45;96597.88;5075779;28;20183;-69
2022/06/09 10:58:15;;;;;;;160.52;151.40;;;;;;;18.46;56.32;96608.19;4974454;28;20316;-69
2022/06/09 11:00:51;;;;;;;162.73;153.90;;;;;;;18.92;56.48;96603.22;4974735;28;20582;-69
2022/06/09 11:03:22;;;;;;;174.48;165.10;;;;;;;18.94;55.31;96590.44;4974994;28;20602;-69
2022/06/09 11:06:06;;;;;;;85.88;80.90;;;;;;;19.00;50.21;96605.25;4974949;28;20592;-69
2022/06/09 11:08:50;;;;;;;80.65;76.25;;;;;;;18.93;50.24;96610.91;4993888;28;20204;-69
2022/06/09 11:11:53;;;;;;;100.18;94.80;;;;;;;19.43;51.06;96603.34;4978000;28;20195;-70
2022/06/09 11:14:40;;;;;;;123.65;116.70;;;;;;;19.76;51.70;96591.72;4974368;28;20642;-70
2022/06/09 11:17:24;;;;;;;170.20;160.63;;;;;;;19.07;55.44;96598.50;4966893;28;20211;-69
2022/06/09 11:20:02;;;;;;;232.30;219.75;;;;;;;18.41;56.55;96603.72;4972007;28;20710;-68
2022/06/09 11:22:27;;;;;;;479.63;448.27;;;;;;;18.17;56.85;96605.53;4973970;28;20590;-69
2022/06/09 11:25:21;;;;;;;213.55;201.93;;;;;;;18.24;55.79;96609.47;4969667;28;20199;-69
2022/06/09 11:28:07;;;;;;;155.60;147.30;;;;;;;18.21;56.01;96606.56;4961883;28;20295;-69
2022/06/09 11:30:57;;;;;;;114.10;108.10;;;;;;;18.59;56.08;96611.00;5064185;28;20186;-69
2022/06/09 11:33:59;;;;;;;129.15;122.18;;;;;;;18.69;55.16;96602.13;5021121;28;20225;-69
2022/06/09 11:36:32;;;;;;;114.65;108.47;;;;;;;18.78;55.91;96615.59;5060879;28;20742;-69